createdAt,value
2022-11-28T00:03:50.122Z,1.65
2022-11-28T00:08:52.772Z,1.55
2022-11-28T00:13:55.767Z,1.80
2022-11-28T00:19:01.069Z,1.20
2022-11-28T00:24:03.791Z,1.63
2022-11-28T00:29:07.039Z,1.45
2022-11-28T00:34:13.569Z,2.05
2022-11-28T00:39:16.560Z,1.73
2022-11-28T00:44:18.924Z,1.50
2022-11-28T00:49:21.251Z,1.20
2022-11-28T00:54:23.437Z,1.20
2022-11-28T00:59:25.645Z,1.23
2022-11-28T01:04:27.929Z,1.35
2022-11-28T01:09:30.154Z,1.42
2022-11-28T01:14:33.752Z,1.55
2022-11-28T01:19:35.980Z,1.40
2022-11-28T01:24:38.115Z,1.48
2022-11-28T01:29:40.234Z,1.30
2022-11-28T01:34:42.786Z,1.40
2022-11-28T01:39:45.203Z,1.20
2022-11-28T01:44:50.487Z,1.45
2022-11-28T01:49:53.920Z,1.67
2022-11-28T01:55:00.885Z,1.73
2022-11-28T02:00:16.055Z,1.52
2022-11-28T02:05:20.449Z,1.50
2022-11-28T02:10:28.329Z,1.70
2022-11-28T02:15:55.512Z,1.55
2022-11-28T02:21:24.204Z,1.52
2022-11-28T02:26:46.701Z,1.70
2022-11-28T02:32:07.449Z,1.80
2022-11-28T02:37:30.194Z,1.63
2022-11-28T02:43:08.771Z,1.70
2022-11-28T02:48:23.287Z,1.92
2022-11-28T02:53:30.548Z,2.00
2022-11-28T02:58:32.818Z,1.52
2022-11-28T03:03:56.866Z,1.50
2022-11-28T03:09:26.455Z,1.58
2022-11-28T03:14:41.685Z,2.40
2022-11-28T03:19:56.190Z,1.50
2022-11-28T03:25:05.753Z,1.40
2022-11-28T03:30:17.058Z,2.05
2022-11-28T03:35:23.544Z,0.90
2022-11-28T03:40:29.303Z,1.73
2022-11-28T03:45:38.924Z,1.20
2022-11-28T03:50:48.327Z,1.10
2022-11-28T03:56:16.262Z,1.35
2022-11-28T04:01:30.085Z,1.70
2022-11-28T04:06:55.927Z,1.90
2022-11-28T04:12:05.109Z,1.23
2022-11-28T04:17:39.662Z,1.20
2022-11-28T04:22:51.465Z,1.30
2022-11-28T04:28:07.503Z,0.85
2022-11-28T04:38:14.610Z,1.13
2022-11-28T04:43:27.034Z,0.80
2022-11-28T04:48:34.318Z,1.20
2022-11-28T04:54:06.095Z,1.02
2022-11-28T04:59:09.848Z,1.00
2022-11-28T05:04:14.539Z,1.48
2022-11-28T05:09:16.828Z,1.85
2022-11-28T05:14:19.172Z,1.60
2022-11-28T05:19:21.292Z,1.65
2022-11-28T05:24:26.769Z,1.88
2022-11-28T05:29:31.431Z,3.60
2022-11-28T05:34:33.676Z,2.33
2022-11-28T05:39:35.797Z,2.45
2022-11-28T05:44:38.027Z,1.83
2022-11-28T05:49:40.339Z,1.63
2022-11-28T05:54:42.716Z,2.10
2022-11-28T05:59:45.210Z,1.65
2022-11-28T06:04:47.593Z,1.77
2022-11-28T06:09:49.786Z,1.58
2022-11-28T06:14:51.879Z,1.63
2022-11-28T06:19:54.086Z,1.25
2022-11-28T06:24:56.186Z,1.17
2022-11-28T06:29:58.374Z,1.27
2022-11-28T06:35:00.534Z,1.00
2022-11-28T06:40:02.892Z,1.00
2022-11-28T06:45:06.082Z,1.30
2022-11-28T06:50:09.713Z,0.80
2022-11-28T06:55:11.922Z,1.00
2022-11-28T07:00:14.758Z,1.00
2022-11-28T07:05:17.116Z,1.30
2022-11-28T07:10:20.027Z,1.58
2022-11-28T07:15:22.483Z,1.23
2022-11-28T07:20:24.679Z,1.40
2022-11-28T07:25:26.918Z,1.20
2022-11-28T07:30:29.262Z,1.80
2022-11-28T07:35:33.992Z,1.30
2022-11-28T07:40:36.220Z,1.00
2022-11-28T07:45:59.362Z,1.23
2022-11-28T07:51:14.480Z,1.27
2022-11-28T07:56:19.424Z,1.10
2022-11-28T08:01:26.814Z,1.35
2022-11-28T08:06:30.794Z,1.27
2022-11-28T08:11:33.848Z,1.27
2022-11-28T08:16:37.117Z,1.15
2022-11-28T08:21:39.493Z,1.40
2022-11-28T08:26:41.699Z,1.00
2022-11-28T08:31:44.039Z,0.90
2022-11-28T08:36:47.482Z,0.80
2022-11-28T08:41:49.925Z,1.45
2022-11-28T08:46:52.619Z,1.60
2022-11-28T08:51:54.924Z,1.25
2022-11-28T08:56:57.339Z,1.42
2022-11-28T09:01:59.532Z,1.00
2022-11-28T09:07:02.276Z,1.25
2022-11-28T09:12:04.609Z,1.13
2022-11-28T09:17:07.261Z,1.02
2022-11-28T09:22:09.831Z,1.45
2022-11-28T09:27:12.102Z,1.02
2022-11-28T09:32:14.612Z,1.40
2022-11-28T09:37:16.992Z,1.20
2022-11-28T09:42:38.213Z,1.45
2022-11-28T09:47:43.539Z,1.67
2022-11-28T09:53:28.716Z,1.13
2022-11-28T09:58:41.485Z,0.98
2022-11-28T10:04:09.891Z,1.63
2022-11-28T10:09:15.306Z,1.10
2022-11-28T10:14:59.489Z,1.05
2022-11-28T10:20:25.919Z,1.20
2022-11-28T10:30:36.426Z,4.40
2022-11-28T10:35:50.930Z,2.58
2022-11-28T10:41:05.271Z,1.52
2022-11-28T10:46:23.226Z,1.30
2022-11-28T10:51:50.570Z,1.00
2022-11-28T10:57:11.846Z,0.98
2022-11-28T11:02:38.158Z,1.83
2022-11-28T11:12:47.206Z,1.27
2022-11-28T11:17:52.760Z,1.48
2022-11-28T11:23:19.091Z,1.77
2022-11-28T11:33:43.547Z,1.70
2022-11-28T11:38:45.896Z,2.10
2022-11-28T11:43:48.072Z,2.17
2022-11-28T11:48:53.918Z,2.72
2022-11-28T11:59:15.259Z,3.30
2022-11-28T12:04:45.455Z,3.40
2022-11-28T12:09:54.513Z,2.20
2022-11-28T12:14:57.206Z,1.92
2022-11-28T12:20:33.122Z,2.10
2022-11-28T12:25:51.847Z,2.05
2022-11-28T12:30:56.905Z,1.95
2022-11-28T12:36:14.729Z,2.10
2022-11-28T12:41:32.980Z,1.48
2022-11-28T12:46:47.847Z,1.05
2022-11-28T12:52:08.801Z,0.70
2022-11-28T12:57:33.499Z,0.90
2022-11-28T13:03:25.854Z,1.17
2022-11-28T13:08:28.244Z,2.00
2022-11-28T13:13:54.100Z,1.48
2022-11-28T13:19:03.676Z,1.77
2022-11-28T13:24:14.971Z,1.33
2022-11-28T13:29:33.544Z,2.05
2022-11-28T13:34:37.514Z,2.35
2022-11-28T13:39:49.501Z,3.38
2022-11-28T13:51:22.819Z,2.70
2022-11-28T13:56:28.074Z,2.23
2022-11-28T14:01:48.324Z,2.00
2022-11-28T14:06:59.165Z,2.10
2022-11-28T14:12:20.388Z,3.85
2022-11-28T14:17:48.623Z,2.33
2022-11-28T14:22:56.953Z,2.10
2022-11-28T14:28:04.599Z,1.95
2022-11-28T14:33:19.135Z,2.28
2022-11-28T14:38:31.486Z,2.67
2022-11-28T14:43:40.462Z,2.80
2022-11-28T14:49:02.812Z,2.45
2022-11-28T14:54:23.187Z,2.50
2022-11-28T14:59:33.029Z,2.88
2022-11-28T15:04:44.819Z,2.08
2022-11-28T15:10:26.282Z,2.47
2022-11-28T15:15:32.139Z,2.42
2022-11-28T15:25:52.077Z,2.05
2022-11-28T15:31:00.504Z,2.60
2022-11-28T15:36:20.938Z,2.20
2022-11-28T15:41:26.526Z,2.63
2022-11-28T15:46:31.051Z,3.20
2022-11-28T15:51:35.768Z,3.30
2022-11-28T15:56:38.373Z,2.85
2022-11-28T16:01:41.240Z,1.73
2022-11-28T16:06:49.254Z,2.00
2022-11-28T16:11:53.971Z,1.40
2022-11-28T16:17:01.853Z,1.48
2022-11-28T16:22:17.228Z,1.75
2022-11-28T16:27:39.179Z,2.10
2022-11-28T16:32:41.607Z,2.20
2022-11-28T16:37:43.963Z,2.42
2022-11-28T16:42:54.004Z,2.35
2022-11-28T16:48:07.006Z,2.50
2022-11-28T16:53:45.325Z,3.42
2022-11-28T16:58:47.642Z,2.70
2022-11-28T17:03:52.484Z,2.47
2022-11-28T17:08:56.231Z,2.17
2022-11-28T17:14:02.298Z,2.15
2022-11-28T17:19:05.607Z,2.90
2022-11-28T17:24:22.611Z,2.78
2022-11-28T17:29:28.756Z,2.97
2022-11-28T17:34:32.889Z,3.22
2022-11-28T17:39:35.315Z,3.10
2022-11-28T17:44:39.134Z,2.28
2022-11-28T17:49:46.080Z,2.70
2022-11-28T17:54:48.758Z,3.20
2022-11-28T17:59:53.187Z,2.78
2022-11-28T18:04:55.564Z,3.20
2022-11-28T18:09:58.461Z,3.97
2022-11-28T18:15:01.105Z,2.00
2022-11-28T18:20:05.173Z,2.55
2022-11-28T18:25:08.401Z,4.00
2022-11-28T18:30:12.402Z,2.75
2022-11-28T18:35:15.168Z,2.38
2022-11-28T18:40:19.100Z,3.05
2022-11-28T18:45:21.790Z,2.70
2022-11-28T18:50:24.508Z,2.85
2022-11-28T18:55:26.948Z,2.55
2022-11-28T19:00:29.630Z,3.28
2022-11-28T19:05:37.847Z,2.58
2022-11-28T19:10:41.801Z,2.90
2022-11-28T19:15:44.490Z,3.17
2022-11-28T19:20:47.340Z,3.88
2022-11-28T19:25:50.025Z,3.75
2022-11-28T19:30:53.637Z,4.05
2022-11-28T19:36:00.486Z,3.42
2022-11-28T19:41:22.508Z,2.97
2022-11-28T19:46:29.154Z,3.60
2022-11-28T19:51:35.189Z,5.03
2022-11-28T19:56:37.730Z,5.47
2022-11-28T20:01:40.509Z,5.70
2022-11-28T20:06:43.635Z,6.85
2022-11-28T20:11:46.178Z,8.20
2022-11-28T20:16:48.679Z,7.80
2022-11-28T20:21:51.436Z,6.68
2022-11-28T20:26:56.954Z,6.47
2022-11-28T20:31:59.513Z,5.00
2022-11-28T20:37:02.321Z,4.35
2022-11-28T20:42:04.853Z,4.80
2022-11-28T20:47:07.873Z,8.23
2022-11-28T20:52:10.089Z,7.22
2022-11-28T20:57:21.432Z,5.57
2022-11-28T21:02:24.381Z,5.25
2022-11-28T21:07:27.105Z,4.95
2022-11-28T21:12:29.353Z,5.05
2022-11-28T21:17:31.575Z,5.80
2022-11-28T21:22:33.753Z,4.47
2022-11-28T21:27:36.037Z,4.63
2022-11-28T21:32:38.338Z,4.00
2022-11-28T21:37:40.580Z,6.40
2022-11-28T21:42:42.826Z,5.07
2022-11-28T21:47:45.514Z,4.45
2022-11-28T21:52:47.737Z,6.53
2022-11-28T21:57:49.918Z,6.32
2022-11-28T22:02:52.464Z,6.40
2022-11-28T22:07:54.824Z,6.47
2022-11-28T22:12:58.101Z,6.85
2022-11-28T22:18:00.250Z,10.35
2022-11-28T22:23:03.869Z,8.93
2022-11-28T22:28:06.320Z,8.60
2022-11-28T22:33:08.583Z,6.78
2022-11-28T22:38:11.262Z,6.20
2022-11-28T22:43:14.519Z,5.55
2022-11-28T22:48:16.666Z,4.00
2022-11-28T22:53:18.909Z,4.00
2022-11-28T22:58:21.104Z,4.13
2022-11-28T23:03:23.460Z,3.17
2022-11-28T23:08:25.819Z,3.10
2022-11-28T23:13:28.542Z,3.25
2022-11-28T23:18:31.015Z,3.55
2022-11-28T23:23:34.934Z,2.95
2022-11-28T23:28:38.389Z,3.20
2022-11-28T23:33:42.149Z,2.55
2022-11-28T23:38:46.217Z,2.65
2022-11-28T23:43:48.710Z,2.90
2022-11-28T23:48:51.226Z,2.55
2022-11-28T23:53:53.932Z,3.35
2022-11-28T23:58:57.486Z,3.53
